Time,TemperatureF,DewpointF,PressureIn,WindDirection,WindDirectionDegrees,WindSpeedMPH,WindSpeedGustMPH,Humidity,HourlyPrecipIn,Conditions,Clouds,dailyrainin,SoftwareType,DateUTC
2013-03-17 00:00:00,33.6,21.2,29.84,West,277,0.0,37.0,60,0.00,,,0.00,Wunderground v.1.15,2013-03-17 04:00:00,
2013-03-17 00:10:00,33.5,21.5,29.84,WNW,294,1.0,1.0,61,0.00,,,0.00,Wunderground v.1.15,2013-03-17 04:10:00,
2013-03-17 00:20:00,33.3,21.7,29.84,West,275,1.0,1.0,62,0.00,,,0.00,Wunderground v.1.15,2013-03-17 04:20:00,
2013-03-17 00:30:00,33.3,22.1,29.84,WSW,255,1.0,1.0,63,0.00,,,0.00,Wunderground v.1.15,2013-03-17 04:30:00,
2013-03-17 00:40:00,33.3,22.4,29.84,West,281,1.0,1.0,64,0.00,,,0.00,Wunderground v.1.15,2013-03-17 04:40:00,
2013-03-17 00:50:00,33.3,23.2,29.84,WNW,287,1.0,1.0,66,0.00,,,0.00,Wunderground v.1.15,2013-03-17 04:50:00,
2013-03-17 01:00:00,33.2,23.4,29.83,West,273,0.0,37.0,67,0.00,,,0.00,Wunderground v.1.15,2013-03-17 05:00:00,
2013-03-17 01:10:00,33.1,23.7,29.84,West,278,0.0,37.0,68,0.00,,,0.00,Wunderground v.1.15,2013-03-17 05:10:00,
2013-03-17 01:20:00,32.9,23.8,29.84,West,269,1.0,37.0,69,0.00,,,0.00,Wunderground v.1.15,2013-03-17 05:20:00,
2013-03-17 01:30:00,32.8,24.1,29.84,West,278,1.0,37.0,70,0.00,,,0.00,Wunderground v.1.15,2013-03-17 05:30:00,
2013-03-17 01:40:00,32.8,24.8,29.84,WNW,290,2.0,2.0,72,0.00,,,0.00,Wunderground v.1.15,2013-03-17 05:40:00,
2013-03-17 01:50:00,32.8,25.1,29.85,WNW,283,2.0,37.0,73,0.00,,,0.00,Wunderground v.1.15,2013-03-17 05:50:00,
2013-03-17 02:00:00,32.6,25.2,29.85,WSW,237,1.0,37.0,74,0.00,,,0.00,Wunderground v.1.15,2013-03-17 06:00:00,
2013-03-17 02:10:00,32.5,25.5,29.85,WSW,255,0.0,37.0,75,0.00,,,0.00,Wunderground v.1.15,2013-03-17 06:10:00,
2013-03-17 02:20:00,32.3,25.9,29.85,WSW,238,1.0,37.0,77,0.00,,,0.00,Wunderground v.1.15,2013-03-17 06:20:00,
2013-03-17 02:30:00,32.1,26.3,29.84,WSW,245,1.0,37.0,79,0.00,,,0.00,Wunderground v.1.15,2013-03-17 06:30:00,
2013-03-17 02:40:00,31.8,26.3,29.84,West,278,0.0,37.0,80,0.00,,,0.00,Wunderground v.1.15,2013-03-17 06:40:00,
2013-03-17 02:50:00,31.3,26.4,29.84,West,259,1.0,37.0,82,0.00,,,0.00,Wunderground v.1.15,2013-03-17 06:50:00,
2013-03-17 03:00:00,31.4,27.1,29.84,West,263,2.0,37.0,84,0.00,,,0.00,Wunderground v.1.15,2013-03-17 07:00:00,
2013-03-17 03:10:00,31.2,26.9,29.85,WNW,290,1.0,37.0,84,0.00,,,0.00,Wunderground v.1.15,2013-03-17 07:10:00,
2013-03-17 03:20:00,30.7,26.4,29.85,WNW,284,1.0,37.0,84,0.00,,,0.00,Wunderground v.1.15,2013-03-17 07:20:00,
2013-03-17 03:30:00,30.5,26.5,29.85,West,281,1.0,37.0,85,0.00,,,0.00,Wunderground v.1.15,2013-03-17 07:30:00,
2013-03-17 03:40:00,30.3,26.6,29.85,WNW,287,1.0,37.0,86,0.00,,,0.00,Wunderground v.1.15,2013-03-17 07:40:00,
2013-03-17 03:50:00,30.2,26.8,29.85,West,279,1.0,37.0,87,0.00,,,0.00,Wunderground v.1.15,2013-03-17 07:50:00,
2013-03-17 04:00:00,30.2,26.8,29.84,WNW,284,1.0,37.0,87,0.00,,,0.00,Wunderground v.1.15,2013-03-17 08:00:00,
2013-03-17 04:10:00,30.1,27.0,29.84,WNW,285,1.0,37.0,88,0.00,,,0.00,Wunderground v.1.15,2013-03-17 08:10:00,
2013-03-17 04:20:00,29.7,26.6,29.85,WNW,286,1.0,37.0,88,0.00,,,0.00,Wunderground v.1.15,2013-03-17 08:20:00,
2013-03-17 04:30:00,29.5,26.7,29.85,West,270,1.0,1.0,89,0.00,,,0.00,Wunderground v.1.15,2013-03-17 08:30:00,
2013-03-17 04:40:00,29.3,26.5,29.85,West,279,0.0,37.0,89,0.00,,,0.00,Wunderground v.1.15,2013-03-17 08:40:00,
2013-03-17 04:50:00,29.2,26.4,29.85,West,267,0.0,37.0,89,0.00,,,0.00,Wunderground v.1.15,2013-03-17 08:50:00,
2013-03-17 05:00:00,29.0,26.4,29.86,West,278,0.0,37.0,90,0.00,,,0.00,Wunderground v.1.15,2013-03-17 09:00:00,
2013-03-17 05:10:00,28.9,26.3,29.86,WNW,294,1.0,37.0,90,0.00,,,0.00,Wunderground v.1.15,2013-03-17 09:10:00,
2013-03-17 05:20:00,28.9,26.1,29.87,West,278,1.0,37.0,89,0.00,,,0.00,Wunderground v.1.15,2013-03-17 09:20:00,
2013-03-17 05:30:00,28.6,25.8,29.88,WNW,300,1.0,37.0,89,0.00,,,0.00,Wunderground v.1.15,2013-03-17 09:30:00,
2013-03-17 05:40:00,28.3,25.5,29.89,WNW,291,1.0,37.0,89,0.00,,,0.00,Wunderground v.1.15,2013-03-17 09:40:00,
2013-03-17 05:50:00,28.0,25.2,29.88,NW,315,2.0,37.0,89,0.00,,,0.00,Wunderground v.1.15,2013-03-17 09:50:00,
2013-03-17 06:00:00,27.9,25.3,29.88,NW,323,1.0,37.0,90,0.00,,,0.00,Wunderground v.1.15,2013-03-17 10:00:00,
2013-03-17 06:10:00,28.2,25.9,29.88,NNW,334,1.0,37.0,91,0.00,,,0.00,Wunderground v.1.15,2013-03-17 10:10:00,
2013-03-17 06:20:00,28.5,25.7,29.89,NW,316,0.0,37.0,89,0.00,,,0.00,Wunderground v.1.15,2013-03-17 10:20:00,
2013-03-17 06:30:00,27.7,24.9,29.90,NW,316,0.0,37.0,89,0.00,,,0.00,Wunderground v.1.15,2013-03-17 10:30:00,
2013-03-17 06:40:00,27.0,24.7,29.91,SW,228,1.0,37.0,91,0.00,,,0.00,Wunderground v.1.15,2013-03-17 10:40:00,
2013-03-17 06:50:00,26.9,24.6,29.90,SW,215,1.0,37.0,91,0.00,,,0.00,Wunderground v.1.15,2013-03-17 10:50:00,
2013-03-17 07:00:00,27.5,25.5,29.90,WSW,246,1.0,37.0,92,0.00,,,0.00,Wunderground v.1.15,2013-03-17 11:00:00,
2013-03-17 07:10:00,28.6,26.0,29.91,WSW,255,1.0,37.0,90,0.00,,,0.00,Wunderground v.1.15,2013-03-17 11:10:00,
2013-03-17 07:20:00,29.9,26.8,29.91,West,271,0.0,37.0,88,0.00,,,0.00,Wunderground v.1.15,2013-03-17 11:20:00,
2013-03-17 07:30:00,31.4,27.1,29.91,West,281,1.0,37.0,84,0.00,,,0.00,Wunderground v.1.15,2013-03-17 11:30:00,
2013-03-17 07:40:00,31.3,26.7,29.91,WNW,283,1.0,37.0,83,0.00,,,0.00,Wunderground v.1.15,2013-03-17 11:40:00,
2013-03-17 07:50:00,31.7,26.8,29.92,WNW,291,2.0,37.0,82,0.00,,,0.00,Wunderground v.1.15,2013-03-17 11:50:00,
2013-03-17 08:01:00,32.4,27.2,29.92,WNW,290,2.0,2.0,81,0.00,,,0.00,Wunderground v.1.15,2013-03-17 12:01:00,
2013-03-17 08:10:00,33.1,27.3,29.92,WNW,291,1.0,37.0,79,0.00,,,0.00,Wunderground v.1.15,2013-03-17 12:10:00,
2013-03-17 08:20:00,33.9,27.4,29.93,WNW,302,1.0,37.0,77,0.00,,,0.00,Wunderground v.1.15,2013-03-17 12:20:00,
2013-03-17 08:30:00,34.5,27.4,29.93,West,277,1.0,37.0,75,0.00,,,0.00,Wunderground v.1.15,2013-03-17 12:30:00,
2013-03-17 08:40:00,35.2,27.4,29.93,NNW,332,2.0,2.0,73,0.00,,,0.00,Wunderground v.1.15,2013-03-17 12:40:00,
2013-03-17 08:50:00,35.8,27.3,29.94,West,273,2.0,37.0,71,0.00,,,0.00,Wunderground v.1.15,2013-03-17 12:50:00,
2013-03-17 09:00:00,36.2,26.6,29.94,NW,311,3.0,37.0,68,0.00,,,0.00,Wunderground v.1.15,2013-03-17 13:00:00,
2013-03-17 09:10:00,36.5,25.1,29.95,NW,319,6.0,37.0,63,0.00,,,0.00,Wunderground v.1.15,2013-03-17 13:10:00,
2013-03-17 09:20:00,37.1,24.9,29.95,WNW,287,6.0,6.0,61,0.00,,,0.00,Wunderground v.1.15,2013-03-17 13:20:00,
2013-03-17 09:30:00,36.7,24.1,29.95,NW,312,7.0,37.0,60,0.00,,,0.00,Wunderground v.1.15,2013-03-17 13:30:00,
2013-03-17 09:40:00,37.2,24.2,29.95,NNW,340,6.0,6.0,59,0.00,,,0.00,Wunderground v.1.15,2013-03-17 13:40:00,
2013-03-17 09:50:00,37.3,23.9,29.95,North,9,6.0,6.0,58,0.00,,,0.00,Wunderground v.1.15,2013-03-17 13:50:00,
2013-03-17 10:00:00,37.2,23.4,29.95,NW,311,7.0,7.0,57,0.00,,,0.00,Wunderground v.1.15,2013-03-17 14:00:00,
2013-03-17 10:10:00,36.8,23.8,29.96,West,277,8.0,8.0,59,0.00,,,0.00,Wunderground v.1.15,2013-03-17 14:10:00,
2013-03-17 10:20:00,36.6,24.8,29.97,WNW,302,10.0,37.0,62,0.00,,,0.00,Wunderground v.1.15,2013-03-17 14:20:00,
2013-03-17 10:30:00,35.7,23.2,29.96,WNW,290,11.0,37.0,60,0.00,,,0.00,Wunderground v.1.15,2013-03-17 14:30:00,
2013-03-17 10:40:00,35.9,22.5,29.97,North,352,11.0,37.0,58,0.00,,,0.00,Wunderground v.1.15,2013-03-17 14:40:00,
2013-03-17 10:50:00,35.8,20.8,29.97,NW,319,11.0,11.0,54,0.00,,,0.00,Wunderground v.1.15,2013-03-17 14:50:00,
2013-03-17 11:00:00,35.8,19.9,29.98,NNW,330,9.0,37.0,52,0.00,,,0.00,Wunderground v.1.15,2013-03-17 15:00:00,
2013-03-17 11:10:00,36.0,20.1,29.99,NW,307,11.0,37.0,52,0.00,,,0.00,Wunderground v.1.15,2013-03-17 15:10:00,
2013-03-17 11:20:00,35.2,20.6,29.99,North,11,11.0,11.0,55,0.00,,,0.00,Wunderground v.1.15,2013-03-17 15:20:00,
2013-03-17 11:30:00,35.3,22.0,30.00,NNW,334,8.0,37.0,58,0.00,,,0.00,Wunderground v.1.15,2013-03-17 15:30:00,
2013-03-17 11:40:00,34.8,21.9,30.00,WNW,290,10.0,10.0,59,0.00,,,0.00,Wunderground v.1.15,2013-03-17 15:40:00,
2013-03-17 11:50:00,33.9,21.1,29.99,North,353,12.0,12.0,59,0.00,,,0.00,Wunderground v.1.15,2013-03-17 15:50:00,
2013-03-17 12:00:00,34.3,20.6,30.00,North,349,9.0,37.0,57,0.00,,,0.00,Wunderground v.1.15,2013-03-17 16:00:00,
2013-03-17 12:10:00,34.9,21.6,30.00,NW,305,9.0,37.0,58,0.00,,,0.00,Wunderground v.1.15,2013-03-17 16:10:00,
2013-03-17 12:20:00,35.0,20.9,29.99,NW,323,10.0,10.0,56,0.00,,,0.00,Wunderground v.1.15,2013-03-17 16:20:00,
2013-03-17 12:30:00,35.9,21.7,29.99,West,276,7.0,37.0,56,0.00,,,0.00,Wunderground v.1.15,2013-03-17 16:30:00,
2013-03-17 12:40:00,35.7,21.9,29.99,NW,319,9.0,9.0,57,0.00,,,0.00,Wunderground v.1.15,2013-03-17 16:40:00,
2013-03-17 12:50:00,36.2,20.7,29.99,NW,320,7.0,7.0,53,0.00,,,0.00,Wunderground v.1.15,2013-03-17 16:50:00,
2013-03-17 13:00:00,35.6,19.7,29.98,WNW,297,9.0,9.0,52,0.00,,,0.00,Wunderground v.1.15,2013-03-17 17:00:00,
2013-03-17 13:10:00,36.4,20.0,29.98,WNW,293,8.0,37.0,51,0.00,,,0.00,Wunderground v.1.15,2013-03-17 17:10:00,
2013-03-17 13:20:00,35.9,20.9,29.98,NNE,30,10.0,37.0,54,0.00,,,0.00,Wunderground v.1.15,2013-03-17 17:20:00,
2013-03-17 13:30:00,35.7,21.1,29.98,North,1,11.0,11.0,55,0.00,,,0.00,Wunderground v.1.15,2013-03-17 17:30:00,
2013-03-17 13:40:00,36.4,21.8,29.98,ENE,70,9.0,37.0,55,0.00,,,0.00,Wunderground v.1.15,2013-03-17 17:40:00,
2013-03-17 13:50:00,35.5,19.6,29.98,WNW,284,11.0,11.0,52,0.00,,,0.00,Wunderground v.1.15,2013-03-17 17:50:00,
2013-03-17 14:00:00,35.5,18.2,29.98,NNE,20,10.0,37.0,49,0.00,,,0.00,Wunderground v.1.15,2013-03-17 18:00:00,
2013-03-17 14:10:00,35.2,17.4,29.99,NW,316,12.0,37.0,48,0.00,,,0.00,Wunderground v.1.15,2013-03-17 18:10:00,
2013-03-17 14:20:00,35.1,17.4,29.99,WNW,287,12.0,12.0,48,0.00,,,0.00,Wunderground v.1.15,2013-03-17 18:20:00,
2013-03-17 14:30:00,35.7,17.4,29.98,NW,325,10.0,37.0,47,0.00,,,0.00,Wunderground v.1.15,2013-03-17 18:30:00,
2013-03-17 14:40:00,35.0,16.3,29.99,NW,312,12.0,37.0,46,0.00,,,0.00,Wunderground v.1.15,2013-03-17 18:40:00,
2013-03-17 14:50:00,34.9,16.2,29.99,NNE,13,13.0,13.0,46,0.00,,,0.00,Wunderground v.1.15,2013-03-17 18:50:00,
2013-03-17 15:00:00,34.9,16.2,30.00,North,6,12.0,37.0,46,0.00,,,0.00,Wunderground v.1.15,2013-03-17 19:00:00,
2013-03-17 15:10:00,35.3,17.1,30.00,NNW,344,10.0,37.0,47,0.00,,,0.00,Wunderground v.1.15,2013-03-17 19:10:00,
2013-03-17 15:20:00,34.9,16.7,30.01,North,6,11.0,37.0,47,0.00,,,0.00,Wunderground v.1.15,2013-03-17 19:20:00,
2013-03-17 15:30:00,34.5,16.3,30.01,NW,310,11.0,11.0,47,0.00,,,0.00,Wunderground v.1.15,2013-03-17 19:30:00,
2013-03-17 15:40:00,34.7,15.5,30.02,North,11,11.0,11.0,45,0.00,,,0.00,Wunderground v.1.15,2013-03-17 19:40:00,
2013-03-17 15:50:00,34.4,14.7,30.02,NNE,27,11.0,11.0,44,0.00,,,0.00,Wunderground v.1.15,2013-03-17 19:50:00,
2013-03-17 16:00:00,34.5,14.3,30.02,West,267,11.0,11.0,43,0.00,,,0.00,Wunderground v.1.15,2013-03-17 20:00:00,
2013-03-17 16:10:00,35.7,15.4,30.03,North,356,6.0,6.0,43,0.00,,,0.00,Wunderground v.1.15,2013-03-17 20:10:00,
2013-03-17 16:20:00,35.2,14.9,30.03,WNW,300,8.0,8.0,43,0.00,,,0.00,Wunderground v.1.15,2013-03-17 20:20:00,
2013-03-17 16:30:00,35.2,14.9,30.03,North,352,8.0,37.0,43,0.00,,,0.00,Wunderground v.1.15,2013-03-17 20:30:00,
2013-03-17 16:40:00,34.9,15.2,30.04,NNW,345,8.0,37.0,44,0.00,,,0.00,Wunderground v.1.15,2013-03-17 20:40:00,
2013-03-17 16:50:00,35.2,14.9,30.04,NW,315,9.0,37.0,43,0.00,,,0.00,Wunderground v.1.15,2013-03-17 20:50:00,
2013-03-17 17:00:00,34.8,14.5,30.04,NW,315,10.0,10.0,43,0.00,,,0.00,Wunderground v.1.15,2013-03-17 21:00:00,
2013-03-17 17:10:00,34.9,14.1,30.05,North,354,8.0,37.0,42,0.00,,,0.00,Wunderground v.1.15,2013-03-17 21:10:00,
2013-03-17 17:20:00,35.0,14.7,30.05,NNE,12,6.0,6.0,43,0.00,,,0.00,Wunderground v.1.15,2013-03-17 21:20:00,
2013-03-17 17:30:00,34.7,13.9,30.06,WNW,287,6.0,37.0,42,0.00,,,0.00,Wunderground v.1.15,2013-03-17 21:30:00,
2013-03-17 17:40:00,34.0,13.8,30.07,NW,311,9.0,37.0,43,0.00,,,0.00,Wunderground v.1.15,2013-03-17 21:40:00,
2013-03-17 17:50:00,33.8,13.6,30.07,NE,56,8.0,8.0,43,0.00,,,0.00,Wunderground v.1.15,2013-03-17 21:50:00,
2013-03-17 18:00:00,33.8,13.6,30.07,NW,315,7.0,7.0,43,0.00,,,0.00,Wunderground v.1.15,2013-03-17 22:00:00,
2013-03-17 18:10:00,33.5,13.4,30.08,WNW,302,7.0,7.0,43,0.00,,,0.00,Wunderground v.1.15,2013-03-17 22:10:00,
2013-03-17 18:20:00,33.2,12.6,30.09,NE,35,7.0,7.0,42,0.00,,,0.00,Wunderground v.1.15,2013-03-17 22:20:00,
2013-03-17 18:30:00,32.9,12.3,30.09,NNW,332,7.0,37.0,42,0.00,,,0.00,Wunderground v.1.15,2013-03-17 22:30:00,
2013-03-17 18:40:00,32.5,12.5,30.10,NE,36,7.0,7.0,43,0.00,,,0.00,Wunderground v.1.15,2013-03-17 22:40:00,
2013-03-17 18:50:00,32.2,12.7,30.10,ENE,63,6.0,6.0,44,0.00,,,0.00,Wunderground v.1.15,2013-03-17 22:50:00,
2013-03-17 19:00:00,31.8,12.8,30.11,NNE,18,5.0,5.0,45,0.00,,,0.00,Wunderground v.1.15,2013-03-17 23:00:00,
2013-03-17 19:10:00,31.5,13.1,30.12,NNW,333,4.0,4.0,46,0.00,,,0.00,Wunderground v.1.15,2013-03-17 23:10:00,
2013-03-17 19:20:00,31.3,12.9,30.12,North,350,5.0,37.0,46,0.00,,,0.00,Wunderground v.1.15,2013-03-17 23:20:00,
2013-03-17 19:30:00,31.2,12.8,30.13,NW,315,6.0,37.0,46,0.00,,,0.00,Wunderground v.1.15,2013-03-17 23:30:00,
2013-03-17 19:40:00,31.0,12.6,30.14,NNE,15,5.0,37.0,46,0.00,,,0.00,Wunderground v.1.15,2013-03-17 23:40:00,
2013-03-17 19:50:00,30.8,12.4,30.14,North,4,4.0,4.0,46,0.00,,,0.00,Wunderground v.1.15,2013-03-17 23:50:00,
2013-03-17 20:00:00,30.6,12.7,30.15,North,1,2.0,37.0,47,0.00,,,0.00,Wunderground v.1.15,2013-03-18 00:00:00,
2013-03-17 20:10:00,30.6,13.2,30.16,NW,312,4.0,4.0,48,0.00,,,0.00,Wunderground v.1.15,2013-03-18 00:10:00,
2013-03-17 20:20:00,30.6,13.7,30.16,NE,37,3.0,3.0,49,0.00,,,0.00,Wunderground v.1.15,2013-03-18 00:20:00,
2013-03-17 20:30:00,30.9,14.0,30.16,North,1,5.0,5.0,49,0.00,,,0.00,Wunderground v.1.15,2013-03-18 00:30:00,
2013-03-17 20:40:00,30.8,14.8,30.17,NW,324,5.0,5.0,51,0.00,,,0.00,Wunderground v.1.15,2013-03-18 00:40:00,
2013-03-17 20:50:00,30.6,14.6,30.17,North,356,3.0,3.0,51,0.00,,,0.00,Wunderground v.1.15,2013-03-18 00:50:00,
2013-03-17 21:00:00,30.4,14.4,30.18,North,9,2.0,37.0,51,0.00,,,0.00,Wunderground v.1.15,2013-03-18 01:00:00,
2013-03-17 21:10:00,30.2,14.7,30.19,NNW,340,2.0,2.0,52,0.00,,,0.00,Wunderground v.1.15,2013-03-18 01:10:00,
2013-03-17 21:20:00,30.0,14.5,30.19,NW,310,2.0,37.0,52,0.00,,,0.00,Wunderground v.1.15,2013-03-18 01:20:00,
2013-03-17 21:30:00,29.5,15.3,30.19,NNW,330,2.0,37.0,55,0.00,,,0.00,Wunderground v.1.15,2013-03-18 01:30:00,
2013-03-17 21:40:00,30.0,14.5,30.20,NNW,333,3.0,37.0,52,0.00,,,0.00,Wunderground v.1.15,2013-03-18 01:40:00,
2013-03-17 21:51:00,31.0,14.0,30.21,NNW,348,4.0,4.0,49,0.00,,,0.00,Wunderground v.1.15,2013-03-18 01:51:00,
2013-03-17 22:00:00,31.1,14.1,30.21,NW,314,3.0,37.0,49,0.00,,,0.00,Wunderground v.1.15,2013-03-18 02:00:00,
2013-03-17 22:10:00,31.3,13.9,30.22,NW,324,4.0,37.0,48,0.00,,,0.00,Wunderground v.1.15,2013-03-18 02:10:00,
2013-03-17 22:20:00,31.4,13.5,30.22,NNW,335,5.0,37.0,47,0.00,,,0.00,Wunderground v.1.15,2013-03-18 02:20:00,
2013-03-17 22:30:00,31.3,13.4,30.23,North,358,5.0,5.0,47,0.00,,,0.00,Wunderground v.1.15,2013-03-18 02:30:00,
2013-03-17 22:40:00,31.2,13.3,30.23,North,6,5.0,37.0,47,0.00,,,0.00,Wunderground v.1.15,2013-03-18 02:40:00,
2013-03-17 22:50:00,31.0,13.1,30.23,NW,324,5.0,5.0,47,0.00,,,0.00,Wunderground v.1.15,2013-03-18 02:50:00,
2013-03-17 23:00:00,31.0,13.1,30.24,WNW,283,6.0,37.0,47,0.00,,,0.00,Wunderground v.1.15,2013-03-18 03:00:00,
2013-03-17 23:10:00,30.7,12.8,30.24,NNE,25,5.0,37.0,47,0.00,,,0.00,Wunderground v.1.15,2013-03-18 03:10:00,
2013-03-17 23:20:00,30.6,12.2,30.24,North,6,6.0,6.0,46,0.00,,,0.00,Wunderground v.1.15,2013-03-18 03:20:00,
2013-03-17 23:30:00,30.6,13.2,30.25,North,359,6.0,6.0,48,0.00,,,0.00,Wunderground v.1.15,2013-03-18 03:30:00,
2013-03-17 23:40:00,30.3,13.4,30.25,North,354,5.0,37.0,49,0.00,,,0.00,Wunderground v.1.15,2013-03-18 03:40:00,
2013-03-17 23:50:00,30.0,14.0,30.26,NNW,327,5.0,5.0,51,0.00,,,0.00,Wunderground v.1.15,2013-03-18 03:50:00,